Time;durP1;ratioP1;P1;durP2;ratioP2;P2;SDS_P1;SDS_P2;PMS_P1;PMS_P2;Temp;Humidity;BMP_temperature;BMP_pressure;BME280_temperature;BME280_humidity;BME280_pressure;Samples;Min_cycle;Max_cycle;Signal;HPM_P1;HPM_P2
2022/01/23 00:02:11;;;;;;;;;;;4.90;99.90;;;;;;5172980;27;20003;-81
2022/01/23 00:04:39;;;;;;;;;;;4.90;99.90;;;;;;5174696;27;19988;-81
2022/01/23 00:07:09;;;;;;;;;;;4.80;99.90;;;;;;5174923;27;20389;-81
2022/01/23 00:09:37;;;;;;;;;;;4.90;99.90;;;;;;5174845;27;20175;-81
2022/01/23 00:12:11;;;;;;;;;;;4.90;99.90;;;;;;5174346;27;20059;-81
2022/01/23 00:17:25;;;;;;;;;;;4.90;99.90;;;;;;5172824;27;44283;-80
2022/01/23 00:19:53;;;;;;;;;;;4.80;99.90;;;;;;5174531;27;20004;-81
2022/01/23 00:22:23;;;;;;;;;;;4.90;99.90;;;;;;5175237;27;20015;-81
2022/01/23 00:30:29;;;;;;;;;;;4.80;99.90;;;;;;5174971;27;20017;-81
2022/01/23 00:33:00;;;;;;;;;;;4.90;99.90;;;;;;5172990;27;43810;-81
2022/01/23 00:35:29;;;;;;;;;;;4.90;99.90;;;;;;5174410;27;41212;-82
2022/01/23 00:37:56;;;;;;;;;;;4.80;99.90;;;;;;5190356;27;41838;-81
2022/01/23 00:40:24;;;;;;;;;;;4.80;99.90;;;;;;5174014;27;42872;-82
2022/01/23 00:42:55;;;;;;;;;;;4.80;99.90;;;;;;5172726;27;43195;-81
2022/01/23 00:48:04;;;;;;;;;;;4.80;99.90;;;;;;5174615;27;38353;-81
2022/01/23 00:50:33;;;;;;;;;;;4.90;99.90;;;;;;5169931;27;28514;-82
2022/01/23 00:53:01;;;;;;;;;;;4.80;99.90;;;;;;5152252;27;38192;-81
2022/01/23 00:55:28;;;;;;;;;;;4.80;99.90;;;;;;5169127;27;40999;-81
2022/01/23 00:57:55;;;;;;;;;;;4.90;99.90;;;;;;5152210;27;34720;-82
2022/01/23 01:00:22;;;;;;;;;;;4.80;99.90;;;;;;5151802;27;43941;-81
2022/01/23 01:02:49;;;;;;;;;;;4.90;99.90;;;;;;5151895;27;39499;-82
2022/01/23 01:05:17;;;;;;;;;;;4.90;99.90;;;;;;5169221;27;35253;-82
2022/01/23 01:07:44;;;;;;;;;;;4.90;99.90;;;;;;5169697;27;44688;-81
2022/01/23 01:10:19;;;;;;;;;;;4.80;99.90;;;;;;5153693;27;38365;-81
2022/01/23 01:12:49;;;;;;;;;;;4.80;99.90;;;;;;5151913;27;41432;-82
2022/01/23 01:31:37;;;;;;;;;;;4.90;99.90;;;;;;5154671;27;19992;-81
2022/01/23 01:34:20;;;;;;;;;;;4.90;99.90;;;;;;5170537;27;19992;-81
2022/01/23 01:36:49;;;;;;;;;;;4.90;99.90;;;;;;5170174;27;20036;-81
2022/01/23 01:39:18;;;;;;;;;;;4.80;99.90;;;;;;5170868;27;20001;-81
2022/01/23 01:41:46;;;;;;;;;;;4.80;99.90;;;;;;5154878;27;20001;-81
2022/01/23 01:44:14;;;;;;;;;;;4.80;99.90;;;;;;5170684;27;20000;-81
2022/01/23 01:46:41;;;;;;;;;;;4.90;99.90;;;;;;5169691;27;20039;-81
2022/01/23 01:49:08;;;;;;;;;;;4.90;99.90;;;;;;5172959;27;20008;-81
2022/01/23 01:51:36;;;;;;;;;;;4.90;99.90;;;;;;5195896;27;20051;-81
2022/01/23 01:54:12;;;;;;;;;;;4.80;99.90;;;;;;5160479;27;19992;-81
2022/01/23 01:56:48;;;;;;;;;;;4.80;99.90;;;;;;5177928;27;19996;-81
2022/01/23 02:10:04;;;;;;;;;;;4.80;99.90;;;;;;5196022;27;20040;-81
2022/01/23 02:15:38;;;;;;;;;;;4.80;99.90;;;;;;5176489;27;20000;-81
2022/01/23 02:18:21;;;;;;;;;;;4.80;99.90;;;;;;5196118;27;20004;-81
2022/01/23 02:51:24;;;;;;;;;;;4.80;99.90;;;;;;5176502;27;19992;-81
2022/01/23 02:56:44;;;;;;;;;;;4.80;99.90;;;;;;5196148;27;20369;-81
2022/01/23 02:59:28;;;;;;;;;;;4.80;99.90;;;;;;5196152;27;20047;-81
2022/01/23 03:04:37;;;;;;;;;;;4.80;99.90;;;;;;5194667;27;43682;-82
2022/01/23 03:07:35;;;;;;;;;;;4.80;99.90;;;;;;5175579;27;39834;-82
2022/01/23 03:10:04;;;;;;;;;;;4.80;99.90;;;;;;5194564;27;45046;-82
2022/01/23 03:15:10;;;;;;;;;;;4.80;99.90;;;;;;5195151;27;20006;-81
2022/01/23 03:29:01;;;;;;;;;;;4.80;99.90;;;;;;5195533;27;20004;-81
2022/01/23 03:31:27;;;;;;;;;;;4.80;99.90;;;;;;5195704;27;20324;-81
2022/01/23 03:33:54;;;;;;;;;;;4.80;99.90;;;;;;5176982;27;20008;-81
2022/01/23 03:36:23;;;;;;;;;;;4.80;99.90;;;;;;5195681;27;20040;-81
2022/01/23 03:38:51;;;;;;;;;;;4.80;99.90;;;;;;5177681;27;20026;-82
2022/01/23 03:41:18;;;;;;;;;;;4.80;99.90;;;;;;5194575;27;35607;-82
2022/01/23 03:43:45;;;;;;;;;;;4.80;99.90;;;;;;5175347;27;37956;-81
2022/01/23 03:51:16;;;;;;;;;;;4.80;99.90;;;;;;5195801;27;20012;-81
2022/01/23 03:53:43;;;;;;;;;;;4.80;99.90;;;;;;5161341;27;20002;-81
2022/01/23 03:56:10;;;;;;;;;;;4.80;99.90;;;;;;5177826;27;19988;-81
2022/01/23 03:58:39;;;;;;;;;;;4.80;99.90;;;;;;5197049;27;20044;-81
2022/01/23 04:01:07;;;;;;;;;;;4.80;99.90;;;;;;5196718;27;20039;-81
2022/01/23 04:03:39;;;;;;;;;;;4.80;99.90;;;;;;5195420;27;20003;-81
2022/01/23 04:06:06;;;;;;;;;;;4.80;99.90;;;;;;5197388;27;20037;-81
2022/01/23 04:08:38;;;;;;;;;;;4.80;99.90;;;;;;5196464;27;19995;-81
2022/01/23 04:11:08;;;;;;;;;;;4.80;99.90;;;;;;5177627;27;19992;-81
2022/01/23 04:13:50;;;;;;;;;;;4.80;99.90;;;;;;5178011;27;20008;-81
2022/01/23 04:16:40;;;;;;;;;;;4.80;99.90;;;;;;5160673;27;20409;-81
2022/01/23 04:47:33;;;;;;;;;;;4.80;99.90;;;;;;5195634;27;39139;-82
2022/01/23 05:01:01;;;;;;;;;;;4.80;99.90;;;;;;5195341;27;43419;-81
2022/01/23 05:06:00;;;;;;;;;;;4.80;99.90;;;;;;5195532;27;39073;-81
2022/01/23 05:08:33;;;;;;;;;;;4.80;99.90;;;;;;5177420;27;34160;-81
2022/01/23 05:11:02;;;;;;;;;;;4.80;99.90;;;;;;5177733;27;20008;-81
2022/01/23 05:13:30;;;;;;;;;;;4.80;99.90;;;;;;5196287;27;20047;-81
2022/01/23 05:15:57;;;;;;;;;;;4.80;99.90;;;;;;5196486;27;20022;-81
2022/01/23 05:18:25;;;;;;;;;;;4.80;99.90;;;;;;5177930;27;20004;-81
2022/01/23 05:21:03;;;;;;;;;;;4.80;99.90;;;;;;5178001;27;20000;-81
2022/01/23 05:23:31;;;;;;;;;;;4.80;99.90;;;;;;5196424;27;19999;-81
2022/01/23 05:25:58;;;;;;;;;;;4.70;99.90;;;;;;5177705;27;20008;-81
2022/01/23 05:28:30;;;;;;;;;;;4.80;99.90;;;;;;5159728;27;20021;-81
2022/01/23 05:30:57;;;;;;;;;;;4.80;99.90;;;;;;5177510;27;20014;-81
2022/01/23 05:33:27;;;;;;;;;;;4.80;99.90;;;;;;5177437;27;20018;-81
2022/01/23 05:35:54;;;;;;;;;;;4.80;99.90;;;;;;5178103;27;20036;-81
2022/01/23 05:38:22;;;;;;;;;;;4.80;99.90;;;;;;5196677;27;20003;-81
2022/01/23 05:40:56;;;;;;;;;;;4.80;99.90;;;;;;5196550;27;19997;-81
2022/01/23 05:43:24;;;;;;;;;;;4.80;99.90;;;;;;5177676;27;19992;-81
2022/01/23 05:45:51;;;;;;;;;;;4.80;99.90;;;;;;5196252;27;20026;-81
2022/01/23 05:48:19;;;;;;;;;;;4.80;99.90;;;;;;5196299;27;20011;-81
2022/01/23 05:50:47;;;;;;;;;;;4.80;99.90;;;;;;5177004;27;20228;-81
2022/01/23 05:53:14;;;;;;;;;;;4.80;99.90;;;;;;5194468;27;19996;-81
2022/01/23 05:55:44;;;;;;;;;;;4.80;99.90;;;;;;5159900;27;19996;-81
2022/01/23 05:58:11;;;;;;;;;;;4.80;99.90;;;;;;5160272;27;20002;-81
2022/01/23 06:00:38;;;;;;;;;;;4.80;99.90;;;;;;5177682;27;20010;-81
2022/01/23 06:03:06;;;;;;;;;;;4.80;99.90;;;;;;5177181;27;20032;-81
2022/01/23 06:05:37;;;;;;;;;;;4.70;99.90;;;;;;5196540;27;20013;-81
2022/01/23 06:08:07;;;;;;;;;;;4.80;99.90;;;;;;5177529;27;20039;-81
2022/01/23 06:10:53;;;;;;;;;;;4.70;99.90;;;;;;5177386;27;20393;-81
2022/01/23 06:13:26;;;;;;;;;;;4.70;99.90;;;;;;5176506;27;19988;-81
2022/01/23 06:15:54;;;;;;;;;;;4.80;99.90;;;;;;5196296;27;19996;-81
2022/01/23 06:18:21;;;;;;;;;;;4.80;99.90;;;;;;5160050;27;20336;-81
2022/01/23 06:20:48;;;;;;;;;;;4.80;99.90;;;;;;5194638;27;19996;-81
2022/01/23 06:23:15;;;;;;;;;;;4.80;99.90;;;;;;5177450;27;20000;-81
2022/01/23 06:25:45;;;;;;;;;;;4.80;99.90;;;;;;5195839;27;20019;-81
2022/01/23 06:28:16;;;;;;;;;;;4.80;99.90;;;;;;5196402;27;20002;-81
2022/01/23 06:30:46;;;;;;;;;;;4.80;99.90;;;;;;5177376;27;20359;-81
2022/01/23 06:33:13;;;;;;;;;;;4.80;99.90;;;;;;5177081;27;20401;-81
2022/01/23 06:35:40;;;;;;;;;;;4.70;99.90;;;;;;5176817;27;20055;-80
2022/01/23 06:38:07;;;;;;;;;;;4.80;99.90;;;;;;5177937;27;20000;-81
2022/01/23 06:40:40;;;;;;;;;;;4.80;99.90;;;;;;5196197;27;20333;-81
2022/01/23 06:43:07;;;;;;;;;;;4.80;99.90;;;;;;5177072;27;19992;-81
2022/01/23 06:45:36;;;;;;;;;;;4.80;99.90;;;;;;5177443;27;20036;-81
2022/01/23 06:48:04;;;;;;;;;;;4.80;99.90;;;;;;5196272;27;20004;-81
2022/01/23 06:50:31;;;;;;;;;;;4.80;99.90;;;;;;5177006;27;20051;-81
2022/01/23 06:53:01;;;;;;;;;;;4.70;99.90;;;;;;5177836;27;20423;-81
2022/01/23 06:55:28;;;;;;;;;;;4.70;99.90;;;;;;5196380;27;20003;-81
2022/01/23 06:57:55;;;;;;;;;;;4.70;99.90;;;;;;5195614;27;20052;-81
2022/01/23 07:00:22;;;;;;;;;;;4.80;99.90;;;;;;5195569;27;20334;-81
2022/01/23 07:02:49;;;;;;;;;;;4.80;99.90;;;;;;5177036;27;20010;-81
2022/01/23 07:05:17;;;;;;;;;;;4.70;99.90;;;;;;5177083;27;20015;-81
2022/01/23 07:07:44;;;;;;;;;;;4.70;99.90;;;;;;5195542;27;20059;-81
2022/01/23 07:10:14;;;;;;;;;;;4.70;99.90;;;;;;5177636;27;20018;-81
2022/01/23 07:12:44;;;;;;;;;;;4.80;99.90;;;;;;5159371;27;20388;-81
2022/01/23 07:15:13;;;;;;;;;;;4.70;99.90;;;;;;5196056;27;20051;-81
2022/01/23 07:17:41;;;;;;;;;;;4.70;99.90;;;;;;5195889;27;20471;-81
2022/01/23 07:20:08;;;;;;;;;;;4.70;99.90;;;;;;5177111;27;20015;-81
2022/01/23 07:22:39;;;;;;;;;;;4.70;99.90;;;;;;5176901;27;20423;-81
2022/01/23 07:25:09;;;;;;;;;;;4.70;99.90;;;;;;5196105;27;19997;-81
2022/01/23 07:27:43;;;;;;;;;;;4.70;99.90;;;;;;5194799;27;19995;-81
2022/01/23 07:30:23;;;;;;;;;;;4.70;99.90;;;;;;5177262;27;20394;-81
2022/01/23 07:32:50;;;;;;;;;;;4.70;99.90;;;;;;5196221;27;20040;-81
2022/01/23 07:35:17;;;;;;;;;;;4.70;99.90;;;;;;5159377;27;20063;-81
2022/01/23 07:37:44;;;;;;;;;;;4.70;99.90;;;;;;5177624;27;19999;-81
2022/01/23 07:40:12;;;;;;;;;;;4.70;99.90;;;;;;5195449;27;20452;-81
2022/01/23 07:42:45;;;;;;;;;;;4.70;99.90;;;;;;5160406;27;20026;-81
2022/01/23 07:45:15;;;;;;;;;;;4.70;99.90;;;;;;5176680;27;20094;-81
2022/01/23 07:47:44;;;;;;;;;;;4.70;99.90;;;;;;5196129;27;20043;-81
2022/01/23 07:50:12;;;;;;;;;;;4.70;99.90;;;;;;5172535;27;20007;-81
2022/01/23 07:52:40;;;;;;;;;;;4.70;99.90;;;;;;5174158;27;20008;-81
2022/01/23 07:55:09;;;;;;;;;;;4.70;99.90;;;;;;5174331;27;20000;-81
2022/01/23 07:57:42;;;;;;;;;;;4.70;99.90;;;;;;5174941;27;20000;-81
2022/01/23 08:00:16;;;;;;;;;;;4.70;99.90;;;;;;5174931;27;20003;-81
2022/01/23 08:02:49;;;;;;;;;;;4.70;99.90;;;;;;5173309;27;20000;-81
2022/01/23 08:05:19;;;;;;;;;;;4.70;99.90;;;;;;5174580;27;19993;-82
2022/01/23 08:07:47;;;;;;;;;;;4.70;99.90;;;;;;5172793;27;42926;-82
2022/01/23 08:10:15;;;;;;;;;;;4.70;99.90;;;;;;5172990;27;19996;-82
2022/01/23 08:12:43;;;;;;;;;;;4.70;99.90;;;;;;5190236;27;20001;-82
2022/01/23 08:15:10;;;;;;;;;;;4.70;99.90;;;;;;5172512;27;36985;-82
2022/01/23 08:17:37;;;;;;;;;;;4.70;99.90;;;;;;5172784;27;44980;-81
2022/01/23 08:20:04;;;;;;;;;;;4.70;99.90;;;;;;5171647;27;43662;-82
2022/01/23 08:22:32;;;;;;;;;;;4.70;99.90;;;;;;5172987;27;32155;-82
2022/01/23 08:25:01;;;;;;;;;;;4.80;99.90;;;;;;5173116;27;41350;-82
2022/01/23 08:27:29;;;;;;;;;;;4.70;99.90;;;;;;5171561;27;44222;-82
2022/01/23 08:29:57;;;;;;;;;;;4.70;99.90;;;;;;5171728;27;38755;-81
2022/01/23 08:32:25;;;;;;;;;;;4.70;99.90;;;;;;5173102;27;41946;-82
2022/01/23 08:34:52;;;;;;;;;;;4.70;99.90;;;;;;5171540;27;41888;-81
2022/01/23 08:37:20;;;;;;;;;;;4.70;99.90;;;;;;5172387;27;46758;-82
2022/01/23 08:39:47;;;;;;;;;;;4.70;99.90;;;;;;5174063;27;44463;-82
2022/01/23 08:42:17;;;;;;;;;;;4.70;99.90;;;;;;5174632;27;37470;-82
2022/01/23 08:44:46;;;;;;;;;;;4.70;99.90;;;;;;5190522;27;39128;-82
2022/01/23 08:47:13;;;;;;;;;;;4.70;99.90;;;;;;5173219;27;40220;-82
2022/01/23 08:49:48;;;;;;;;;;;4.70;99.90;;;;;;5172718;27;42819;-82
2022/01/23 08:52:17;;;;;;;;;;;4.70;99.90;;;;;;5173256;27;41592;-82
2022/01/23 08:54:50;;;;;;;;;;;4.70;99.90;;;;;;5174991;27;20435;-82
2022/01/23 08:57:18;;;;;;;;;;;4.70;99.90;;;;;;5173042;27;43218;-82
2022/01/23 08:59:45;;;;;;;;;;;4.70;99.90;;;;;;5173198;27;28578;-82
2022/01/23 09:02:13;;;;;;;;;;;4.70;99.90;;;;;;5174175;27;33562;-82
2022/01/23 09:04:40;;;;;;;;;;;4.70;99.90;;;;;;5190074;27;41502;-82
2022/01/23 09:07:07;;;;;;;;;;;4.70;99.90;;;;;;5172673;27;43565;-82
2022/01/23 09:09:38;;;;;;;;;;;4.70;99.90;;;;;;5174218;27;37951;-82
2022/01/23 09:12:10;;;;;;;;;;;4.70;99.90;;;;;;5174271;27;40658;-82
2022/01/23 09:14:40;;;;;;;;;;;4.80;99.90;;;;;;5191320;27;20344;-86
2022/01/23 09:17:07;;;;;;;;;;;4.70;99.90;;;;;;5176306;27;20062;-86
2022/01/23 09:19:34;;;;;;;;;;;4.70;99.90;;;;;;5174653;27;20019;-89
2022/01/23 09:22:01;;;;;;;;;;;4.70;99.90;;;;;;5174629;27;20043;-89
2022/01/23 09:24:30;;;;;;;;;;;4.70;99.90;;;;;;5175050;27;20036;-89
2022/01/23 09:27:04;;;;;;;;;;;4.70;99.90;;;;;;5157681;27;20032;-89
2022/01/23 09:29:36;;;;;;;;;;;4.80;99.90;;;;;;5156092;27;41131;-89
2022/01/23 09:32:06;;;;;;;;;;;4.70;99.90;;;;;;5192345;27;19989;-88
2022/01/23 09:34:33;;;;;;;;;;;4.80;99.90;;;;;;5173570;27;40985;-89
2022/01/23 09:37:01;;;;;;;;;;;4.80;99.90;;;;;;5173680;27;26010;-89
2022/01/23 09:39:29;;;;;;;;;;;4.80;99.90;;;;;;5157586;27;20008;-89
2022/01/23 09:41:59;;;;;;;;;;;4.80;99.90;;;;;;5173590;27;26919;-89
2022/01/23 09:44:30;;;;;;;;;;;4.80;99.90;;;;;;5176491;27;20008;-89
2022/01/23 09:47:36;;;;;;;;;;;4.80;99.90;;;;;;5157279;27;20449;-89
2022/01/23 09:50:37;;;;;;;;;;;4.80;99.90;;;;;;5202937;27;20070;-89
2022/01/23 09:53:24;;;;;;;;;;;4.70;99.90;;;;;;5234896;27;20044;-89
2022/01/23 09:55:59;;;;;;;;;;;4.80;99.90;;;;;;5221073;27;20008;-89
2022/01/23 09:58:26;;;;;;;;;;;4.80;99.90;;;;;;5180706;27;20452;-88
2022/01/23 10:00:56;;;;;;;;;;;4.80;99.90;;;;;;5197120;27;23135;-89
2022/01/23 10:03:23;;;;;;;;;;;4.80;99.90;;;;;;5198229;27;20102;-90
2022/01/23 10:05:54;;;;;;;;;;;4.80;99.90;;;;;;5196526;27;30437;-89
2022/01/23 10:08:24;;;;;;;;;;;4.80;99.90;;;;;;5180936;27;20002;-89
2022/01/23 10:10:56;;;;;;;;;;;4.80;99.90;;;;;;5198409;27;20020;-89
2022/01/23 10:13:24;;;;;;;;;;;4.80;99.90;;;;;;5198231;27;20055;-90
2022/01/23 10:15:55;;;;;;;;;;;4.80;99.90;;;;;;5214307;27;31290;-89
2022/01/23 10:18:23;;;;;;;;;;;4.80;99.90;;;;;;5197896;27;20095;-89
2022/01/23 10:20:51;;;;;;;;;;;4.80;99.90;;;;;;5197671;27;20055;-89
2022/01/23 10:23:21;;;;;;;;;;;4.80;99.90;;;;;;5192439;27;20074;-89
2022/01/23 10:25:52;;;;;;;;;;;4.80;99.90;;;;;;5156829;27;20000;-89
2022/01/23 10:28:21;;;;;;;;;;;4.80;99.90;;;;;;5174586;27;20005;-89
2022/01/23 10:30:49;;;;;;;;;;;4.80;99.90;;;;;;5175536;27;20016;-89
2022/01/23 10:33:21;;;;;;;;;;;4.80;99.90;;;;;;5174739;27;20032;-89
2022/01/23 10:35:57;;;;;;;;;;;4.80;99.90;;;;;;5173921;27;20003;-89
2022/01/23 10:38:26;;;;;;;;;;;4.80;99.90;;;;;;5173025;27;35068;-89
2022/01/23 10:41:06;;;;;;;;;;;4.80;99.90;;;;;;5173172;27;33988;-89
2022/01/23 10:47:05;;;;;;;;;;;4.80;99.90;;;;;;5175585;27;20337;-89
2022/01/23 10:49:46;;;;;;;;;;;4.80;99.90;;;;;;5191440;27;20052;-88
2022/01/23 10:52:27;;;;;;;;;;;4.80;99.90;;;;;;5173535;27;20012;-90
2022/01/23 10:54:57;;;;;;;;;;;4.80;99.90;;;;;;5157044;27;20079;-88
2022/01/23 10:57:32;;;;;;;;;;;4.80;99.90;;;;;;5173912;27;20055;-89
2022/01/23 11:00:02;;;;;;;;;;;4.80;99.90;;;;;;5157133;27;20012;-89
2022/01/23 11:02:30;;;;;;;;;;;4.80;99.90;;;;;;5156701;27;19996;-89
2022/01/23 11:05:08;;;;;;;;;;;4.80;99.90;;;;;;5174118;27;20036;-89
2022/01/23 11:07:38;;;;;;;;;;;4.80;99.90;;;;;;5156814;27;20390;-88
2022/01/23 11:10:07;;;;;;;;;;;4.80;99.90;;;;;;5157420;27;20329;-89
2022/01/23 11:17:59;;;;;;;;;;;4.80;99.90;;;;;;5172841;27;25151;-89
2022/01/23 11:20:29;;;;;;;;;;;4.80;99.90;;;;;;5156062;27;20002;-87
2022/01/23 11:23:01;;;;;;;;;;;4.90;99.90;;;;;;5156746;27;20024;-88
2022/01/23 11:25:28;;;;;;;;;;;4.80;99.90;;;;;;5174010;27;19992;-88
2022/01/23 11:28:02;;;;;;;;;;;4.80;99.90;;;;;;5173486;27;19992;-88
2022/01/23 11:30:38;;;;;;;;;;;4.80;99.90;;;;;;5175477;27;20044;-88
2022/01/23 11:33:07;;;;;;;;;;;4.80;99.90;;;;;;5191344;27;20411;-88
2022/01/23 11:35:34;;;;;;;;;;;4.90;99.90;;;;;;5157043;27;20028;-88
2022/01/23 11:38:04;;;;;;;;;;;4.90;99.90;;;;;;5156721;27;20038;-88
2022/01/23 11:40:43;;;;;;;;;;;4.80;99.90;;;;;;5174284;27;20000;-88
2022/01/23 11:54:35;;;;;;;;;;;4.90;99.90;;;;;;5174282;27;31332;-88
2022/01/23 11:57:05;;;;;;;;;;;4.90;99.90;;;;;;5173976;27;37178;-88
2022/01/23 11:59:34;;;;;;;;;;;4.90;99.90;;;;;;5172350;27;35637;-88
2022/01/23 12:02:20;;;;;;;;;;;4.90;99.90;;;;;;5172944;27;45185;-88
2022/01/23 12:05:06;;;;;;;;;;;4.90;99.90;;;;;;5172750;27;28158;-88
2022/01/23 12:07:35;;;;;;;;;;;4.90;99.90;;;;;;5172393;27;33169;-88
2022/01/23 12:10:21;;;;;;;;;;;4.90;99.90;;;;;;5173158;27;29291;-88
2022/01/23 12:12:51;;;;;;;;;;;4.90;99.90;;;;;;5156123;27;41193;-88
2022/01/23 12:18:21;;;;;;;;;;;4.90;99.90;;;;;;5190329;27;41401;-89
2022/01/23 12:20:50;;;;;;;;;;;4.90;99.90;;;;;;5174026;27;28737;-89
2022/01/23 12:23:17;;;;;;;;;;;4.90;99.90;;;;;;5174793;27;37814;-89
2022/01/23 12:25:46;;;;;;;;;;;4.80;99.90;;;;;;5156812;27;28990;-89
2022/01/23 12:28:17;;;;;;;;;;;4.90;99.90;;;;;;5174987;27;20004;-89
2022/01/23 12:30:45;;;;;;;;;;;4.90;99.90;;;;;;5157821;27;20461;-89
2022/01/23 12:33:16;;;;;;;;;;;4.90;99.90;;;;;;5174875;27;19988;-89
2022/01/23 12:35:45;;;;;;;;;;;4.90;99.90;;;;;;5175678;27;20002;-89
2022/01/23 12:38:16;;;;;;;;;;;4.90;99.90;;;;;;5175091;27;20008;-89
2022/01/23 12:40:46;;;;;;;;;;;4.90;99.90;;;;;;5175825;27;19999;-89
2022/01/23 12:43:15;;;;;;;;;;;4.90;99.90;;;;;;5193091;27;19988;-89
2022/01/23 12:45:43;;;;;;;;;;;4.90;99.90;;;;;;5175009;27;20388;-89
2022/01/23 12:48:26;;;;;;;;;;;4.90;99.90;;;;;;5176824;27;20035;-90
2022/01/23 12:50:55;;;;;;;;;;;4.90;99.90;;;;;;5178796;27;20351;-89
2022/01/23 12:53:33;;;;;;;;;;;4.90;99.90;;;;;;5161358;27;20036;-89
2022/01/23 12:56:01;;;;;;;;;;;4.90;99.90;;;;;;5178616;27;20036;-89
2022/01/23 12:58:29;;;;;;;;;;;4.90;99.90;;;;;;5160686;27;19996;-89
2022/01/23 13:00:58;;;;;;;;;;;4.90;99.90;;;;;;5179265;27;20403;-89
2022/01/23 13:03:26;;;;;;;;;;;4.90;99.90;;;;;;5160877;27;19988;-89
2022/01/23 13:05:56;;;;;;;;;;;4.90;99.90;;;;;;5161243;27;19992;-90
2022/01/23 13:08:30;;;;;;;;;;;4.90;99.90;;;;;;5178190;27;19991;-89
2022/01/23 13:32:21;;;;;;;;;;;4.90;99.90;;;;;;5178193;27;19996;-89
2022/01/23 13:35:08;;;;;;;;;;;4.90;99.90;;;;;;5177863;27;21325;-89
2022/01/23 13:37:38;;;;;;;;;;;4.90;99.90;;;;;;5178420;27;20071;-89
2022/01/23 13:40:10;;;;;;;;;;;4.90;99.90;;;;;;5177577;27;19996;-88
2022/01/23 13:59:35;;;;;;;;;;;4.90;99.90;;;;;;5177957;27;19992;-88
2022/01/23 14:02:19;;;;;;;;;;;4.90;99.90;;;;;;5160908;27;20017;-89
2022/01/23 14:04:46;;;;;;;;;;;4.90;99.90;;;;;;5178275;27;20066;-89
2022/01/23 14:07:17;;;;;;;;;;;4.90;99.90;;;;;;5160749;27;20005;-89
2022/01/23 14:09:45;;;;;;;;;;;4.90;99.90;;;;;;5196232;27;20036;-89
2022/01/23 14:12:14;;;;;;;;;;;5.00;99.90;;;;;;5178629;27;20043;-89
2022/01/23 14:14:55;;;;;;;;;;;4.90;99.90;;;;;;5177736;27;20000;-89
2022/01/23 14:17:32;;;;;;;;;;;4.90;99.90;;;;;;5177925;27;19996;-88
2022/01/23 14:20:10;;;;;;;;;;;4.90;99.90;;;;;;5160602;27;20023;-89
2022/01/23 14:22:39;;;;;;;;;;;4.90;99.90;;;;;;5160448;27;20044;-89
2022/01/23 14:25:10;;;;;;;;;;;4.90;99.90;;;;;;5160524;27;20028;-89
2022/01/23 14:27:41;;;;;;;;;;;4.90;99.90;;;;;;5161362;27;20000;-89
2022/01/23 14:30:14;;;;;;;;;;;4.90;99.90;;;;;;5160385;27;19998;-90
2022/01/23 14:32:46;;;;;;;;;;;4.90;99.90;;;;;;5178159;27;20008;-89
2022/01/23 14:35:17;;;;;;;;;;;4.90;99.90;;;;;;5196640;27;19993;-89
2022/01/23 14:37:49;;;;;;;;;;;4.90;99.90;;;;;;5196781;27;19992;-89
2022/01/23 14:40:21;;;;;;;;;;;4.90;99.90;;;;;;5178403;27;20095;-89
2022/01/23 14:42:57;;;;;;;;;;;4.90;99.90;;;;;;5178317;27;19996;-88
2022/01/23 14:45:28;;;;;;;;;;;5.00;99.90;;;;;;5160721;27;19988;-89
2022/01/23 14:48:01;;;;;;;;;;;4.90;99.90;;;;;;5160382;27;20081;-89
2022/01/23 14:50:31;;;;;;;;;;;4.90;99.90;;;;;;5156401;27;20102;-89
2022/01/23 14:53:04;;;;;;;;;;;5.00;99.90;;;;;;5156783;27;20000;-89
2022/01/23 14:55:31;;;;;;;;;;;5.00;99.90;;;;;;5174239;27;19998;-88
2022/01/23 14:58:03;;;;;;;;;;;5.00;99.90;;;;;;5155521;27;37629;-89
2022/01/23 15:00:34;;;;;;;;;;;5.00;99.90;;;;;;5173202;27;33769;-89
2022/01/23 15:03:03;;;;;;;;;;;5.00;99.90;;;;;;5172975;27;36005;-89
2022/01/23 15:05:31;;;;;;;;;;;5.00;99.90;;;;;;5174153;27;20041;-89
2022/01/23 15:07:59;;;;;;;;;;;5.00;99.90;;;;;;5172629;27;37519;-89
2022/01/23 15:10:27;;;;;;;;;;;5.00;99.90;;;;;;5174873;27;30295;-89
2022/01/23 15:12:54;;;;;;;;;;;5.00;99.90;;;;;;5156192;27;20002;-88
2022/01/23 15:15:21;;;;;;;;;;;5.00;99.90;;;;;;5172812;27;34381;-89
2022/01/23 15:17:48;;;;;;;;;;;5.00;99.90;;;;;;5173254;27;34454;-89
2022/01/23 15:20:16;;;;;;;;;;;5.00;99.90;;;;;;5155751;27;25719;-89
2022/01/23 15:22:45;;;;;;;;;;;5.00;99.90;;;;;;5172637;27;35539;-89
2022/01/23 15:25:13;;;;;;;;;;;5.00;99.90;;;;;;5155673;27;29221;-89
2022/01/23 15:27:41;;;;;;;;;;;5.00;99.90;;;;;;5173665;27;23774;-89
2022/01/23 15:30:09;;;;;;;;;;;5.00;99.90;;;;;;5172734;27;33808;-88
2022/01/23 15:32:37;;;;;;;;;;;5.00;99.90;;;;;;5172815;27;31451;-89
2022/01/23 15:35:05;;;;;;;;;;;5.00;99.90;;;;;;5155101;27;37047;-89
2022/01/23 15:37:32;;;;;;;;;;;5.00;99.90;;;;;;5155224;27;36114;-88
2022/01/23 15:39:59;;;;;;;;;;;5.00;99.90;;;;;;5173196;27;30941;-89
2022/01/23 15:42:26;;;;;;;;;;;5.00;99.90;;;;;;5155511;27;35586;-89
2022/01/23 15:44:54;;;;;;;;;;;5.00;99.90;;;;;;5156032;27;26532;-89
2022/01/23 15:47:21;;;;;;;;;;;5.00;99.90;;;;;;5174863;27;20349;-89
2022/01/23 15:49:48;;;;;;;;;;;5.00;99.90;;;;;;5173737;27;29818;-88
2022/01/23 15:52:15;;;;;;;;;;;5.00;99.90;;;;;;5156603;27;38169;-89
2022/01/23 15:54:42;;;;;;;;;;;5.00;99.90;;;;;;5156861;27;31111;-89
2022/01/23 15:57:09;;;;;;;;;;;5.00;99.90;;;;;;5173834;27;34092;-89
2022/01/23 15:59:36;;;;;;;;;;;5.00;99.90;;;;;;5156758;27;25432;-88
2022/01/23 16:02:05;;;;;;;;;;;5.00;99.90;;;;;;5156495;27;41295;-89
2022/01/23 16:04:35;;;;;;;;;;;5.00;99.90;;;;;;5156494;27;31592;-89
2022/01/23 16:07:03;;;;;;;;;;;5.00;99.90;;;;;;5175083;27;19996;-89
2022/01/23 16:09:34;;;;;;;;;;;5.00;99.90;;;;;;5174809;27;20000;-89
2022/01/23 16:12:02;;;;;;;;;;;5.00;99.90;;;;;;5158103;27;19981;-89
2022/01/23 16:14:49;;;;;;;;;;;5.00;99.90;;;;;;5159940;27;19989;-86
2022/01/23 16:17:16;;;;;;;;;;;5.00;99.90;;;;;;5173648;27;24348;-89
2022/01/23 16:19:43;;;;;;;;;;;5.00;99.90;;;;;;5172494;27;40783;-89
2022/01/23 16:22:11;;;;;;;;;;;5.00;99.90;;;;;;5156765;27;29110;-90
2022/01/23 16:24:38;;;;;;;;;;;5.00;99.90;;;;;;5174253;27;40000;-89
2022/01/23 16:27:05;;;;;;;;;;;5.00;99.90;;;;;;5174407;27;19992;-89
2022/01/23 16:29:32;;;;;;;;;;;5.00;99.90;;;;;;5173698;27;39101;-89
2022/01/23 16:31:59;;;;;;;;;;;5.00;99.90;;;;;;5156316;27;41672;-90
2022/01/23 16:34:30;;;;;;;;;;;5.00;99.90;;;;;;5191869;27;26444;-89
2022/01/23 16:36:57;;;;;;;;;;;5.00;99.90;;;;;;5156495;27;33571;-90
2022/01/23 16:39:24;;;;;;;;;;;5.00;99.90;;;;;;5157685;27;20008;-90
2022/01/23 16:41:51;;;;;;;;;;;5.00;99.90;;;;;;5173928;27;30276;-90
2022/01/23 16:44:22;;;;;;;;;;;5.00;99.90;;;;;;5173682;27;38526;-89
2022/01/23 16:46:50;;;;;;;;;;;5.00;99.90;;;;;;5174501;27;34697;-90
2022/01/23 16:49:37;;;;;;;;;;;5.00;99.90;;;;;;5159734;27;20046;-89
2022/01/23 16:52:04;;;;;;;;;;;5.00;99.90;;;;;;5174421;27;21695;-89
2022/01/23 16:54:31;;;;;;;;;;;5.00;99.90;;;;;;5173285;27;43248;-89
2022/01/23 16:57:18;;;;;;;;;;;5.00;99.90;;;;;;5174942;27;20000;-90
2022/01/23 16:59:45;;;;;;;;;;;5.00;99.90;;;;;;5174056;27;20031;-89
2022/01/23 17:02:15;;;;;;;;;;;5.00;99.90;;;;;;5156489;27;22831;-89
2022/01/23 17:04:45;;;;;;;;;;;5.00;99.90;;;;;;5173700;27;27761;-89
2022/01/23 17:07:26;;;;;;;;;;;5.00;99.90;;;;;;5156815;27;29776;-89
2022/01/23 17:09:58;;;;;;;;;;;5.00;99.90;;;;;;5174459;27;34507;-89
2022/01/23 17:12:34;;;;;;;;;;;5.00;99.90;;;;;;5175301;27;35766;-89
2022/01/23 17:15:10;;;;;;;;;;;5.00;99.90;;;;;;5176270;27;20048;-89
2022/01/23 17:17:43;;;;;;;;;;;5.00;99.90;;;;;;5173648;27;32744;-89
2022/01/23 17:20:15;;;;;;;;;;;5.00;99.90;;;;;;5157497;27;19996;-89
2022/01/23 17:22:49;;;;;;;;;;;5.00;99.90;;;;;;5173580;27;33912;-89
2022/01/23 17:25:25;;;;;;;;;;;5.00;99.90;;;;;;5174785;27;19992;-89
2022/01/23 17:28:00;;;;;;;;;;;5.00;99.90;;;;;;5175046;27;19993;-89
2022/01/23 17:30:36;;;;;;;;;;;5.00;99.90;;;;;;5175058;27;19992;-89
2022/01/23 17:33:03;;;;;;;;;;;5.00;99.90;;;;;;5175303;27;19989;-89
2022/01/23 17:35:34;;;;;;;;;;;5.00;99.90;;;;;;5174550;27;20333;-89
2022/01/23 17:38:04;;;;;;;;;;;5.00;99.90;;;;;;5175169;27;20017;-89
2022/01/23 17:40:37;;;;;;;;;;;5.00;99.90;;;;;;5192110;27;20000;-88
2022/01/23 17:43:12;;;;;;;;;;;5.00;99.90;;;;;;5157670;27;20032;-89
2022/01/23 17:45:53;;;;;;;;;;;5.00;99.90;;;;;;5175002;27;20024;-89
2022/01/23 17:51:08;;;;;;;;;;;5.00;99.90;;;;;;5177338;27;20045;-89
2022/01/23 17:53:41;;;;;;;;;;;5.00;99.90;;;;;;5159532;27;36920;-89
2022/01/23 17:56:17;;;;;;;;;;;5.00;99.90;;;;;;5176815;27;28719;-88
2022/01/23 17:58:49;;;;;;;;;;;5.00;99.90;;;;;;5197118;27;20000;-89
2022/01/23 18:01:19;;;;;;;;;;;5.00;99.90;;;;;;5177966;27;20000;-88
2022/01/23 18:03:49;;;;;;;;;;;5.00;99.90;;;;;;5159716;27;29546;-89
2022/01/23 18:06:24;;;;;;;;;;;5.00;99.90;;;;;;5159666;27;41478;-89
2022/01/23 18:09:00;;;;;;;;;;;5.00;99.90;;;;;;5195539;27;25398;-89
2022/01/23 18:11:33;;;;;;;;;;;5.00;99.90;;;;;;5176489;27;37382;-89
2022/01/23 18:14:09;;;;;;;;;;;5.00;99.90;;;;;;5176257;27;39687;-88